createdAt,value
2022-11-22T00:02:58.337Z,34.42
2022-11-22T00:05:45.401Z,29.67
2022-11-22T00:08:33.477Z,30.73
2022-11-22T00:11:22.227Z,30.48
2022-11-22T00:14:10.590Z,32.50
2022-11-22T00:16:58.505Z,31.55
2022-11-22T00:19:44.621Z,32.13
2022-11-22T00:22:32.328Z,32.28
2022-11-22T00:25:18.633Z,33.83
2022-11-22T00:28:24.138Z,31.83
2022-11-22T00:31:10.540Z,31.33
2022-11-22T00:33:57.033Z,31.58
2022-11-22T00:36:43.344Z,29.77
2022-11-22T00:39:30.132Z,32.00
2022-11-22T00:42:16.572Z,27.90
2022-11-22T00:45:03.235Z,25.98
2022-11-22T00:47:49.623Z,29.33
2022-11-22T00:50:36.832Z,28.02
2022-11-22T00:53:23.560Z,30.30
2022-11-22T00:56:10.065Z,29.63
2022-11-22T00:58:56.519Z,30.88
2022-11-22T01:01:43.024Z,29.00
2022-11-22T01:04:33.137Z,31.35
2022-11-22T01:07:22.589Z,31.88
2022-11-22T01:10:09.406Z,30.52
2022-11-22T01:12:59.324Z,30.80
2022-11-22T01:15:48.780Z,29.08
2022-11-22T01:18:39.789Z,32.13
2022-11-22T01:21:26.175Z,29.20
2022-11-22T01:24:12.989Z,31.15
2022-11-22T01:26:59.442Z,30.63
2022-11-22T01:29:46.073Z,29.05
2022-11-22T01:32:32.857Z,28.25
2022-11-22T01:35:19.766Z,28.25
2022-11-22T01:38:06.330Z,27.33
2022-11-22T01:40:53.756Z,30.25
2022-11-22T01:43:42.293Z,30.55
2022-11-22T01:46:28.519Z,27.77
2022-11-22T01:49:21.810Z,27.23
2022-11-22T01:52:13.270Z,29.60
2022-11-22T01:55:04.216Z,28.48
2022-11-22T02:00:38.435Z,27.70
2022-11-22T02:03:25.700Z,26.35
2022-11-22T02:06:11.982Z,27.83
2022-11-22T02:09:08.123Z,26.50
2022-11-22T02:12:00.888Z,26.02
2022-11-22T02:14:50.078Z,24.83
2022-11-22T02:17:36.350Z,27.52
2022-11-22T02:20:23.216Z,25.40
2022-11-22T02:23:26.725Z,28.10
2022-11-22T02:26:13.649Z,24.80
2022-11-22T02:29:03.114Z,26.73
2022-11-22T02:31:50.040Z,27.15
2022-11-22T02:34:48.260Z,26.65
2022-11-22T02:37:35.051Z,28.30
2022-11-22T02:40:21.833Z,31.30
2022-11-22T02:43:15.370Z,28.08
2022-11-22T02:46:08.766Z,26.60
2022-11-22T02:48:55.328Z,29.52
2022-11-22T02:51:44.304Z,26.55
2022-11-22T02:54:31.026Z,29.63
2022-11-22T02:57:17.059Z,31.00
2022-11-22T03:00:04.168Z,30.40
2022-11-22T03:02:50.709Z,26.23
2022-11-22T03:05:37.283Z,27.50
2022-11-22T03:08:23.834Z,27.60
2022-11-22T03:11:10.393Z,29.52
2022-11-22T03:13:56.762Z,27.38
2022-11-22T03:16:44.314Z,26.55
2022-11-22T03:19:30.730Z,28.17
2022-11-22T03:22:17.719Z,25.13
2022-11-22T03:25:06.394Z,29.45
2022-11-22T03:27:52.589Z,26.77
2022-11-22T03:30:42.452Z,26.65
2022-11-22T03:33:29.163Z,27.50
2022-11-22T03:36:17.290Z,28.50
2022-11-22T03:39:04.269Z,24.67
2022-11-22T03:41:53.878Z,26.15
2022-11-22T03:44:40.426Z,26.85
2022-11-22T03:47:26.960Z,28.45
2022-11-22T03:50:13.384Z,26.80
2022-11-22T03:52:59.826Z,27.80
2022-11-22T03:55:47.084Z,27.17
2022-11-22T03:58:34.455Z,25.75
2022-11-22T04:01:21.008Z,27.08
2022-11-22T04:04:07.814Z,25.83
2022-11-22T04:06:54.343Z,27.20
2022-11-22T04:09:40.654Z,27.30
2022-11-22T04:12:30.411Z,27.48
2022-11-22T04:15:16.848Z,31.80
2022-11-22T04:18:03.804Z,32.70
2022-11-22T04:21:08.782Z,28.10
2022-11-22T04:24:13.698Z,27.05
2022-11-22T04:27:00.151Z,26.35
2022-11-22T04:29:47.947Z,28.35
2022-11-22T04:32:46.361Z,36.03
2022-11-22T04:35:32.890Z,27.23
2022-11-22T04:38:20.451Z,31.20
2022-11-22T04:41:09.914Z,36.35
2022-11-22T04:44:14.919Z,26.60
2022-11-22T04:47:01.646Z,30.38
2022-11-22T04:49:48.254Z,35.97
2022-11-22T04:52:53.287Z,27.67
2022-11-22T04:55:40.090Z,27.15
2022-11-22T04:58:26.954Z,34.72
2022-11-22T05:01:15.629Z,35.55
2022-11-22T05:04:02.206Z,39.15
2022-11-22T05:06:48.620Z,33.08
2022-11-22T05:09:35.263Z,26.48
2022-11-22T05:12:21.643Z,27.95
2022-11-22T05:15:09.285Z,26.02
2022-11-22T05:17:56.435Z,30.65
2022-11-22T05:20:43.070Z,33.00
2022-11-22T05:23:47.593Z,29.35
2022-11-22T05:26:35.922Z,36.05
2022-11-22T05:29:25.022Z,31.35
2022-11-22T05:32:11.806Z,35.78
2022-11-22T05:34:58.522Z,33.58
2022-11-22T05:37:46.225Z,24.65
2022-11-22T05:40:32.552Z,30.20
2022-11-22T05:43:19.358Z,29.77
2022-11-22T05:46:10.243Z,27.88
2022-11-22T05:48:58.425Z,24.25
2022-11-22T05:51:44.903Z,30.75
2022-11-22T05:54:31.536Z,31.90
2022-11-22T05:57:18.574Z,30.80
2022-11-22T06:00:06.482Z,32.90
2022-11-22T06:03:02.185Z,33.20
2022-11-22T06:05:52.889Z,29.92
2022-11-22T06:08:45.359Z,28.35
2022-11-22T06:11:31.846Z,25.95
2022-11-22T06:14:18.173Z,26.92
2022-11-22T06:17:05.019Z,32.67
2022-11-22T06:19:51.510Z,27.58
2022-11-22T06:22:38.185Z,29.95
2022-11-22T06:25:24.557Z,28.60
2022-11-22T06:28:11.078Z,28.15
2022-11-22T06:31:04.302Z,31.58
2022-11-22T06:33:54.925Z,30.48
2022-11-22T06:36:41.441Z,26.67
2022-11-22T06:39:28.691Z,27.63
2022-11-22T06:42:18.456Z,29.85
2022-11-22T06:45:05.872Z,30.20
2022-11-22T06:47:52.339Z,30.42
2022-11-22T06:50:39.391Z,32.53
2022-11-22T06:53:46.271Z,27.80
2022-11-22T06:56:38.192Z,29.90
2022-11-22T06:59:24.258Z,34.10
2022-11-22T07:02:12.519Z,40.15
2022-11-22T07:05:23.799Z,29.85
2022-11-22T07:08:12.080Z,29.95
2022-11-22T07:11:04.280Z,29.60
2022-11-22T07:13:52.106Z,29.65
2022-11-22T07:16:39.201Z,32.85
2022-11-22T07:19:27.207Z,33.10
2022-11-22T07:22:14.596Z,32.58
2022-11-22T07:25:00.937Z,29.90
2022-11-22T07:27:47.538Z,30.48
2022-11-22T07:30:36.086Z,31.30
2022-11-22T07:33:24.817Z,29.98
2022-11-22T07:36:13.875Z,32.03
2022-11-22T07:39:00.409Z,33.40
2022-11-22T07:41:47.409Z,39.10
2022-11-22T07:44:33.875Z,38.10
2022-11-22T07:47:23.063Z,35.28
2022-11-22T07:50:09.917Z,34.88
2022-11-22T07:52:58.066Z,32.03
2022-11-22T07:55:44.477Z,33.17
2022-11-22T07:58:31.318Z,32.88
2022-11-22T08:01:19.200Z,36.83
2022-11-22T08:04:05.736Z,37.63
2022-11-22T08:06:52.171Z,32.72
2022-11-22T08:09:38.869Z,32.08
2022-11-22T08:12:25.201Z,31.63
2022-11-22T08:15:12.811Z,31.17
2022-11-22T08:17:59.450Z,30.58
2022-11-22T08:20:46.097Z,31.08
2022-11-22T08:23:32.349Z,39.00
2022-11-22T08:26:21.187Z,27.75
2022-11-22T08:29:13.951Z,28.67
2022-11-22T08:32:01.330Z,27.75
2022-11-22T08:34:48.031Z,28.23
2022-11-22T08:37:35.188Z,25.10
2022-11-22T08:40:21.742Z,27.00
2022-11-22T08:43:08.391Z,25.00
2022-11-22T08:45:57.261Z,27.40
2022-11-22T08:48:45.068Z,25.40
2022-11-22T08:51:31.049Z,23.13
2022-11-22T08:54:17.578Z,23.52
2022-11-22T08:57:04.034Z,27.30
2022-11-22T08:59:50.791Z,27.23
2022-11-22T09:02:37.573Z,25.08
2022-11-22T09:05:24.096Z,34.88
2022-11-22T09:08:28.888Z,40.60
2022-11-22T09:11:20.398Z,37.42
2022-11-22T09:14:06.559Z,32.00
2022-11-22T09:16:53.045Z,42.92
2022-11-22T09:19:39.635Z,28.38
2022-11-22T09:22:29.420Z,24.45
2022-11-22T09:25:15.567Z,27.88
2022-11-22T09:28:03.235Z,28.15
2022-11-22T09:30:59.041Z,26.90
2022-11-22T09:33:46.280Z,27.25
2022-11-22T09:36:32.697Z,24.25
2022-11-22T09:39:19.429Z,22.83
2022-11-22T09:42:16.222Z,24.90
2022-11-22T09:45:11.950Z,25.35
2022-11-22T09:48:23.330Z,25.17
2022-11-22T09:51:14.192Z,31.08
2022-11-22T09:54:51.474Z,21.77
2022-11-22T09:58:08.825Z,21.98
2022-11-22T10:01:15.965Z,24.20
2022-11-22T10:04:19.393Z,27.48
2022-11-22T10:07:16.741Z,27.25
2022-11-22T10:10:12.101Z,24.17
2022-11-22T10:13:09.588Z,25.33
2022-11-22T10:16:16.738Z,23.55
2022-11-22T10:19:22.941Z,24.05
2022-11-22T10:22:13.970Z,29.85
2022-11-22T10:25:03.181Z,24.65
2022-11-22T10:27:57.599Z,24.10
2022-11-22T10:30:55.109Z,26.70
2022-11-22T10:33:58.795Z,25.10
2022-11-22T10:36:57.179Z,26.23
2022-11-22T10:39:52.640Z,24.73
2022-11-22T10:42:55.347Z,27.52
2022-11-22T10:45:56.656Z,27.63
2022-11-22T10:51:46.131Z,29.05
2022-11-22T10:54:51.182Z,26.55
2022-11-22T10:58:02.584Z,26.30
2022-11-22T11:00:59.841Z,25.02
2022-11-22T11:03:48.511Z,24.23
2022-11-22T11:07:10.302Z,23.92
2022-11-22T11:13:03.562Z,24.50
2022-11-22T11:15:58.689Z,28.20
2022-11-22T11:18:56.128Z,23.50
2022-11-22T11:21:42.367Z,23.77
2022-11-22T11:24:30.550Z,25.75
2022-11-22T11:27:19.160Z,26.73
2022-11-22T11:30:11.919Z,21.98
2022-11-22T11:32:58.362Z,24.00
2022-11-22T11:35:46.392Z,24.98
2022-11-22T11:38:38.379Z,25.58
2022-11-22T11:41:24.981Z,25.42
2022-11-22T11:44:27.282Z,33.28
2022-11-22T11:47:20.125Z,32.65
2022-11-22T11:50:23.963Z,32.22
2022-11-22T11:53:24.968Z,29.88
2022-11-22T11:56:34.401Z,31.05
2022-11-22T11:59:23.004Z,25.17
2022-11-22T12:02:34.684Z,28.48
2022-11-22T12:05:20.993Z,40.03
2022-11-22T12:08:30.574Z,39.95
2022-11-22T12:11:22.298Z,34.05
2022-11-22T12:14:19.991Z,29.90
2022-11-22T12:17:12.673Z,30.20
2022-11-22T12:20:31.906Z,33.45
2022-11-22T12:23:25.470Z,28.35
2022-11-22T12:26:12.904Z,35.70
2022-11-22T12:29:01.407Z,31.52
2022-11-22T12:32:06.943Z,29.77
2022-11-22T12:35:15.995Z,37.10
2022-11-22T12:38:13.204Z,39.13
2022-11-22T12:41:02.594Z,29.00
2022-11-22T12:43:53.870Z,34.42
2022-11-22T12:46:43.293Z,40.17
2022-11-22T12:50:20.855Z,38.83
2022-11-22T12:53:29.771Z,27.90
2022-11-22T12:56:33.328Z,28.50
2022-11-22T12:59:45.966Z,30.50
2022-11-22T13:02:36.502Z,35.00
2022-11-22T13:05:41.153Z,33.83
2022-11-22T13:09:04.004Z,32.22
2022-11-22T13:11:58.930Z,36.55
2022-11-22T13:14:54.157Z,36.17
2022-11-22T13:17:40.525Z,37.85
2022-11-22T13:20:42.737Z,34.75
2022-11-22T13:23:57.282Z,30.73
2022-11-22T13:27:03.132Z,31.35
2022-11-22T13:29:50.349Z,33.85
2022-11-22T13:32:41.824Z,31.25
2022-11-22T13:35:36.462Z,31.70
2022-11-22T13:38:24.539Z,30.85
2022-11-22T13:41:27.355Z,36.05
2022-11-22T13:44:25.994Z,43.15
2022-11-22T13:47:24.356Z,40.08
2022-11-22T13:50:41.786Z,33.03
2022-11-22T13:53:30.526Z,34.67
2022-11-22T13:56:17.483Z,34.08
2022-11-22T13:59:06.108Z,37.20
2022-11-22T14:01:57.690Z,37.92
2022-11-22T14:07:35.872Z,36.65
2022-11-22T14:10:37.966Z,39.25
2022-11-22T14:13:54.724Z,39.00
2022-11-22T14:16:44.337Z,46.35
2022-11-22T14:19:52.231Z,56.15
2022-11-22T14:22:53.969Z,108.07
2022-11-22T14:25:55.991Z,137.10
2022-11-22T14:29:10.514Z,131.35
2022-11-22T14:32:18.202Z,58.95
2022-11-22T14:35:04.778Z,50.00
2022-11-22T14:37:58.621Z,36.78
2022-11-22T14:40:46.317Z,63.28
2022-11-22T14:43:36.603Z,43.38
2022-11-22T14:46:51.169Z,43.85
2022-11-22T14:49:47.270Z,35.53
2022-11-22T14:52:35.973Z,34.90
2022-11-22T14:55:27.054Z,41.83
2022-11-22T14:58:23.496Z,38.45
2022-11-22T15:01:22.908Z,37.05
2022-11-22T15:09:23.872Z,43.63
2022-11-22T15:10:40.737Z,46.58
2022-11-22T15:13:34.444Z,37.05
2022-11-22T15:57:49.031Z,51.35
2022-11-22T16:00:35.494Z,50.83
2022-11-22T16:03:25.909Z,57.15
2022-11-22T16:06:20.273Z,38.97
2022-11-22T16:09:06.749Z,38.25
2022-11-22T16:11:55.596Z,35.25
2022-11-22T16:14:50.932Z,37.60
2022-11-22T16:17:41.240Z,40.22
2022-11-22T16:20:32.613Z,47.65
2022-11-22T16:23:25.586Z,42.65
2022-11-22T16:26:13.604Z,43.88
2022-11-22T16:29:22.242Z,44.00
2022-11-22T16:32:14.365Z,41.15
2022-11-22T16:35:28.409Z,42.40
2022-11-22T16:38:16.061Z,40.53
2022-11-22T16:41:03.098Z,46.40
2022-11-22T16:43:52.872Z,46.22
2022-11-22T16:46:42.712Z,43.55
2022-11-22T16:49:32.064Z,42.47
2022-11-22T16:52:18.691Z,42.70
2022-11-22T16:55:06.402Z,37.80
2022-11-22T16:57:52.750Z,40.78
2022-11-22T17:00:39.563Z,36.83
2022-11-22T17:03:27.399Z,47.42
2022-11-22T17:06:25.057Z,37.60
2022-11-22T17:09:11.726Z,38.55
2022-11-22T17:11:58.395Z,37.63
2022-11-22T17:14:48.489Z,41.85
2022-11-22T17:17:35.054Z,39.67
2022-11-22T17:20:21.548Z,38.60
2022-11-22T17:23:13.978Z,36.50
2022-11-22T17:26:00.872Z,35.45
2022-11-22T17:28:48.581Z,39.03
2022-11-22T17:31:35.069Z,37.20
2022-11-22T17:34:21.563Z,43.85
2022-11-22T17:37:21.207Z,37.55
2022-11-22T17:40:09.250Z,37.78
2022-11-22T17:42:55.890Z,37.80
2022-11-22T17:45:43.425Z,40.72
2022-11-22T17:48:29.622Z,39.95
2022-11-22T17:51:16.512Z,39.10
2022-11-22T17:54:03.027Z,40.15
2022-11-22T17:56:49.822Z,37.60
2022-11-22T17:59:36.274Z,40.08
2022-11-22T18:02:23.151Z,46.13
2022-11-22T18:05:09.979Z,46.28
2022-11-22T18:07:56.446Z,45.88
2022-11-22T18:10:43.104Z,40.55
2022-11-22T18:13:33.529Z,38.60
2022-11-22T18:16:20.050Z,47.47
2022-11-22T18:19:11.493Z,52.88
2022-11-22T18:21:57.867Z,48.30
2022-11-22T18:24:44.407Z,44.85
2022-11-22T18:27:30.748Z,41.40
2022-11-22T18:30:17.137Z,40.08
2022-11-22T18:33:04.415Z,49.72
2022-11-22T18:36:00.881Z,41.53
2022-11-22T18:38:50.602Z,43.97
2022-11-22T18:41:40.273Z,48.78
2022-11-22T18:44:26.482Z,38.25
2022-11-22T18:47:14.826Z,47.47
2022-11-22T18:50:01.157Z,47.78
2022-11-22T18:52:47.880Z,42.67
2022-11-22T18:55:37.087Z,41.15
2022-11-22T18:58:23.995Z,41.38
2022-11-22T19:01:21.623Z,42.33
2022-11-22T19:04:11.446Z,38.45
2022-11-22T19:07:00.451Z,38.92
2022-11-22T19:09:47.205Z,46.80
2022-11-22T19:12:33.981Z,42.15
2022-11-22T19:15:21.256Z,45.75
2022-11-22T19:18:09.755Z,44.58
2022-11-22T19:20:56.170Z,50.08
2022-11-22T19:23:44.988Z,39.90
2022-11-22T19:26:32.150Z,48.75
2022-11-22T19:29:18.817Z,56.30
2022-11-22T19:32:05.812Z,42.85
2022-11-22T19:34:52.190Z,34.80
2022-11-22T19:37:39.184Z,39.28
2022-11-22T19:40:26.080Z,36.00
2022-11-22T19:43:16.379Z,38.30
2022-11-22T19:46:08.554Z,39.45
2022-11-22T19:48:57.597Z,38.75
2022-11-22T19:51:46.430Z,36.40
2022-11-22T19:54:35.966Z,37.15
2022-11-22T19:57:25.712Z,40.50
2022-11-22T20:03:15.380Z,34.05
2022-11-22T20:06:13.611Z,39.92
2022-11-22T20:09:14.538Z,39.17
2022-11-22T20:12:06.733Z,38.10
2022-11-22T20:14:59.713Z,47.50
2022-11-22T20:17:58.415Z,44.38
2022-11-22T20:20:45.708Z,37.28
2022-11-22T20:23:34.630Z,40.20
2022-11-22T20:26:26.492Z,46.15
2022-11-22T20:29:15.282Z,36.47
2022-11-22T20:32:03.390Z,39.10
2022-11-22T20:34:53.230Z,39.83
2022-11-22T20:37:42.437Z,51.88
2022-11-22T20:40:34.481Z,47.15
2022-11-22T20:43:21.012Z,39.42
2022-11-22T20:46:12.265Z,37.15
2022-11-22T20:49:05.456Z,37.22
2022-11-22T20:52:01.503Z,33.65
2022-11-22T20:54:49.797Z,35.83
2022-11-22T20:57:38.871Z,41.53
2022-11-22T21:00:25.675Z,35.78
2022-11-22T21:03:12.584Z,43.15
2022-11-22T21:05:59.139Z,38.83
2022-11-22T21:08:46.053Z,34.45
2022-11-22T21:11:32.879Z,32.90
2022-11-22T21:14:20.897Z,32.45
2022-11-22T21:17:35.889Z,35.03
2022-11-22T21:20:14.925Z,34.70
2022-11-22T21:23:01.248Z,33.75
2022-11-22T21:25:53.198Z,38.35
2022-11-22T21:28:40.087Z,36.85
2022-11-22T21:31:30.302Z,34.05
2022-11-22T21:34:25.279Z,35.90
2022-11-22T21:37:16.168Z,33.70
2022-11-22T21:40:02.939Z,35.72
2022-11-22T21:42:49.881Z,34.58
2022-11-22T21:45:35.892Z,32.92
2022-11-22T21:48:24.407Z,35.78
2022-11-22T21:51:11.457Z,35.58
2022-11-22T21:53:59.296Z,36.88
2022-11-22T21:56:46.338Z,34.60
2022-11-22T21:59:33.719Z,35.45
2022-11-22T22:02:20.301Z,34.03
2022-11-22T22:05:07.709Z,36.75
2022-11-22T22:07:54.273Z,37.50
2022-11-22T22:10:41.242Z,33.80
2022-11-22T22:13:30.986Z,36.50
2022-11-22T22:16:23.266Z,35.85
2022-11-22T22:19:10.351Z,36.67
2022-11-22T22:21:57.340Z,37.42
2022-11-22T22:24:44.022Z,36.45
2022-11-22T22:27:33.547Z,35.50
2022-11-22T22:30:20.121Z,36.70
2022-11-22T22:33:06.849Z,34.10
2022-11-22T22:35:53.260Z,33.60
2022-11-22T22:38:40.821Z,34.75
2022-11-22T22:41:27.908Z,34.13
2022-11-22T22:44:14.554Z,32.80
2022-11-22T22:47:00.640Z,36.25
2022-11-22T22:49:47.402Z,32.30
2022-11-22T22:52:34.209Z,32.30
2022-11-22T22:55:20.740Z,32.40
2022-11-22T22:58:09.412Z,32.28
2022-11-22T23:01:18.747Z,31.65
2022-11-22T23:04:05.722Z,32.88
2022-11-22T23:06:52.487Z,32.38
2022-11-22T23:09:41.978Z,33.35
2022-11-22T23:12:28.879Z,33.30
2022-11-22T23:15:21.789Z,31.63
2022-11-22T23:18:21.486Z,32.15
2022-11-22T23:21:10.878Z,33.17
2022-11-22T23:23:57.542Z,31.80
2022-11-22T23:26:44.592Z,32.97
2022-11-22T23:29:31.674Z,31.70
2022-11-22T23:32:18.030Z,33.30
2022-11-22T23:35:04.837Z,32.72
2022-11-22T23:37:50.982Z,32.15
2022-11-22T23:40:40.088Z,32.05
2022-11-22T23:43:26.534Z,32.95
2022-11-22T23:46:19.106Z,32.33
2022-11-22T23:49:06.167Z,30.73
2022-11-22T23:51:53.396Z,31.45
2022-11-22T23:54:39.702Z,32.95
2022-11-22T23:57:26.419Z,30.83
